createdAt,value
2023-04-10T00:00:13.309Z,7.30
2023-04-10T00:05:15.310Z,7.40
2023-04-10T00:10:17.189Z,7.20
2023-04-10T00:15:18.860Z,7.00
2023-04-10T00:20:21.896Z,6.50
2023-04-10T00:25:23.671Z,6.40
2023-04-10T00:30:25.471Z,6.50
2023-04-10T00:35:27.197Z,6.50
2023-04-10T00:40:30.326Z,6.50
2023-04-10T00:45:32.058Z,6.50
2023-04-10T00:50:33.784Z,6.40
2023-04-10T00:55:35.535Z,6.50
2023-04-10T01:00:37.299Z,6.70
2023-04-10T01:05:44.816Z,6.70
2023-04-10T01:11:18.057Z,6.60
2023-04-10T01:16:36.236Z,6.50
2023-04-10T01:21:38.838Z,6.20
2023-04-10T01:27:18.872Z,5.90
2023-04-10T01:32:22.121Z,6.10
2023-04-10T01:37:29.449Z,6.20
2023-04-10T01:42:35.519Z,6.00
2023-04-10T01:47:37.391Z,6.00
2023-04-10T01:52:40.327Z,6.20
2023-04-10T01:57:42.029Z,6.20
2023-04-10T02:02:44.767Z,6.20
2023-04-10T02:07:54.988Z,6.30
2023-04-10T02:13:03.065Z,6.20
2023-04-10T02:18:06.586Z,6.30
2023-04-10T02:23:09.104Z,6.20
2023-04-10T02:28:10.813Z,6.10
2023-04-10T02:33:12.496Z,6.10
2023-04-10T02:38:16.803Z,6.00
2023-04-10T02:43:19.074Z,5.90
2023-04-10T02:48:20.829Z,6.00
2023-04-10T02:53:23.189Z,5.90
2023-04-10T02:58:24.893Z,5.60
2023-04-10T03:03:26.796Z,5.60
2023-04-10T03:08:30.251Z,5.60
2023-04-10T03:13:31.925Z,5.60
2023-04-10T03:18:34.346Z,5.80
2023-04-10T03:23:36.775Z,5.70
2023-04-10T03:28:39.774Z,5.40
2023-04-10T03:33:41.746Z,5.40
2023-04-10T03:38:43.420Z,5.40
2023-04-10T03:43:45.479Z,5.60
2023-04-10T03:48:47.226Z,5.60
2023-04-10T03:53:48.891Z,5.70
2023-04-10T03:58:50.677Z,5.60
2023-04-10T04:03:52.744Z,5.20
2023-04-10T04:08:54.793Z,5.20
2023-04-10T04:13:56.492Z,5.40
2023-04-10T04:18:58.152Z,5.30
2023-04-10T04:23:59.884Z,5.40
2023-04-10T04:29:01.590Z,5.30
2023-04-10T04:34:03.373Z,5.10
2023-04-10T04:39:05.265Z,5.10
2023-04-10T04:44:06.980Z,5.00
2023-04-10T04:49:08.663Z,5.10
2023-04-10T04:54:10.378Z,5.00
2023-04-10T04:59:12.073Z,4.90
2023-04-10T05:04:14.005Z,4.80
2023-04-10T05:09:15.824Z,5.00
2023-04-10T05:14:17.553Z,4.90
2023-04-10T05:19:19.228Z,5.00
2023-04-10T05:24:21.533Z,5.30
2023-04-10T05:29:24.794Z,5.30
2023-04-10T05:34:26.499Z,5.20
2023-04-10T05:39:28.163Z,5.30
2023-04-10T05:44:30.557Z,5.30
2023-04-10T05:49:32.923Z,5.30
2023-04-10T05:54:34.786Z,5.50
2023-04-10T05:59:36.437Z,5.70
2023-04-10T06:04:38.479Z,5.30
2023-04-10T06:09:40.465Z,5.50
2023-04-10T06:14:42.475Z,5.70
2023-04-10T06:19:44.285Z,6.00
2023-04-10T06:24:45.950Z,6.10
2023-04-10T06:29:47.654Z,6.20
2023-04-10T06:34:49.345Z,6.50
2023-04-10T06:39:51.067Z,6.80
2023-04-10T06:44:52.771Z,7.20
2023-04-10T06:49:54.482Z,7.60
2023-04-10T06:54:56.385Z,7.80
2023-04-10T06:59:58.092Z,8.30
2023-04-10T07:04:59.746Z,8.60
2023-04-10T07:10:01.475Z,8.80
2023-04-10T07:15:03.248Z,9.30
2023-04-10T07:20:05.678Z,9.30
2023-04-10T07:25:08.368Z,9.70
2023-04-10T07:30:11.767Z,10.10
2023-04-10T07:35:15.200Z,10.20
2023-04-10T07:40:16.992Z,10.40
2023-04-10T07:45:18.873Z,10.90
2023-04-10T07:50:20.516Z,11.30
2023-04-10T07:55:22.333Z,11.70
2023-04-10T08:00:24.079Z,11.90
2023-04-10T08:05:25.970Z,12.10
2023-04-10T08:10:27.752Z,12.50
2023-04-10T08:15:29.423Z,12.80
2023-04-10T08:20:36.738Z,13.00
2023-04-10T08:25:38.584Z,13.10
2023-04-10T08:30:40.334Z,13.50
2023-04-10T08:35:42.067Z,13.80
2023-04-10T08:40:44.692Z,14.10
2023-04-10T08:45:46.621Z,14.50
2023-04-10T08:50:50.261Z,15.00
2023-04-10T08:55:52.123Z,15.30
2023-04-10T09:00:54.233Z,15.60
2023-04-10T09:06:01.329Z,15.70
2023-04-10T09:11:03.110Z,15.80
2023-04-10T09:16:05.483Z,16.20
2023-04-10T09:21:08.620Z,16.10
2023-04-10T09:26:24.356Z,16.60
2023-04-10T09:31:34.573Z,16.90
2023-04-10T09:36:37.451Z,17.30
2023-04-10T09:41:55.533Z,17.40
2023-04-10T09:46:58.206Z,17.90
2023-04-10T09:52:00.062Z,18.60
2023-04-10T09:57:01.908Z,18.70
2023-04-10T10:02:04.792Z,19.20
2023-04-10T10:07:07.000Z,19.40
2023-04-10T10:12:11.309Z,19.70
2023-04-10T10:17:18.094Z,20.20
2023-04-10T10:22:21.154Z,21.10
2023-04-10T10:27:27.381Z,21.60
2023-04-10T10:32:30.013Z,21.20
2023-04-10T10:37:32.244Z,21.40
2023-04-10T10:42:43.948Z,22.00
2023-04-10T10:47:52.167Z,22.30
2023-04-10T10:52:56.073Z,22.70
2023-04-10T10:58:17.232Z,22.80
2023-04-10T11:03:19.074Z,22.80
2023-04-10T11:08:35.972Z,22.00
2023-04-10T11:13:39.764Z,21.80
2023-04-10T11:18:59.205Z,21.70
2023-04-10T11:24:12.136Z,22.00
2023-04-10T11:29:19.885Z,22.50
2023-04-10T11:34:21.858Z,23.00
2023-04-10T11:39:23.794Z,23.70
2023-04-10T11:44:35.429Z,24.10
2023-04-10T11:49:37.249Z,23.70
2023-04-10T11:54:48.855Z,23.70
2023-04-10T11:59:51.474Z,23.90
2023-04-10T12:04:59.478Z,23.30
2023-04-10T12:10:02.098Z,22.30
2023-04-10T12:15:23.489Z,22.80
2023-04-10T12:20:27.879Z,22.50
2023-04-10T12:25:29.570Z,22.80
2023-04-10T12:30:31.240Z,23.00
2023-04-10T12:35:44.665Z,22.90
2023-04-10T12:41:02.305Z,23.00
2023-04-10T12:46:06.151Z,22.30
2023-04-10T12:51:08.058Z,21.90
2023-04-10T12:56:09.789Z,21.80
2023-04-10T13:01:11.557Z,21.70
2023-04-10T13:06:13.284Z,22.00
2023-04-10T13:11:14.944Z,21.90
2023-04-10T13:16:17.069Z,21.60
2023-04-10T13:21:25.935Z,21.50
2023-04-10T13:26:27.598Z,21.60
2023-04-10T13:31:29.378Z,21.30
2023-04-10T13:36:31.773Z,21.00
2023-04-10T13:41:33.813Z,20.90
2023-04-10T13:46:35.497Z,21.10
2023-04-10T13:51:37.229Z,20.90
2023-04-10T13:56:38.943Z,20.80
2023-04-10T14:01:40.659Z,20.80
2023-04-10T14:06:42.720Z,20.60
2023-04-10T14:11:44.440Z,20.40
2023-04-10T14:16:46.138Z,19.90
2023-04-10T14:21:47.873Z,20.00
2023-04-10T14:26:52.052Z,20.00
2023-04-10T14:31:58.135Z,20.00
2023-04-10T14:37:00.332Z,20.30
2023-04-10T14:42:02.742Z,19.90
2023-04-10T14:47:06.551Z,19.80
2023-04-10T14:52:09.472Z,19.70
2023-04-10T14:57:12.309Z,19.60
2023-04-10T15:02:14.086Z,19.60
2023-04-10T15:07:15.932Z,19.40
2023-04-10T15:12:20.786Z,19.30
2023-04-10T15:17:23.494Z,19.10
2023-04-10T15:22:26.214Z,18.90
2023-04-10T15:27:27.943Z,18.80
2023-04-10T15:32:30.873Z,18.60
2023-04-10T15:37:36.376Z,18.30
2023-04-10T15:42:38.048Z,18.40
2023-04-10T15:47:39.789Z,18.40
2023-04-10T15:52:41.509Z,18.50
2023-04-10T15:57:43.242Z,18.50
2023-04-10T16:02:45.188Z,18.50
2023-04-10T16:07:47.291Z,18.30
2023-04-10T16:12:48.978Z,18.30
2023-04-10T16:17:50.885Z,18.20
2023-04-10T16:22:53.545Z,18.30
2023-04-10T16:27:55.694Z,18.30
2023-04-10T16:32:57.484Z,18.30
2023-04-10T16:37:59.226Z,18.20
2023-04-10T16:43:01.881Z,18.10
2023-04-10T16:48:03.856Z,17.90
2023-04-10T16:53:05.707Z,17.70
2023-04-10T16:58:07.387Z,17.50
2023-04-10T17:03:09.262Z,17.50
2023-04-10T17:08:11.062Z,17.40
2023-04-10T17:13:12.718Z,17.30
2023-04-10T17:18:15.245Z,17.20
2023-04-10T17:23:17.027Z,17.10
2023-04-10T17:28:18.719Z,17.00
2023-04-10T17:33:21.718Z,16.90
2023-04-10T17:38:23.472Z,16.90
2023-04-10T17:43:25.202Z,16.70
2023-04-10T17:48:27.264Z,16.70
2023-04-10T17:53:29.089Z,16.60
2023-04-10T17:58:31.064Z,16.50
2023-04-10T18:03:32.839Z,16.40
2023-04-10T18:08:35.284Z,16.40
2023-04-10T18:13:36.969Z,16.30
2023-04-10T18:18:39.519Z,16.30
2023-04-10T18:23:41.268Z,16.20
2023-04-10T18:28:43.510Z,16.20
2023-04-10T18:33:48.571Z,16.10
2023-04-10T18:38:58.242Z,16.00
2023-04-10T18:44:05.111Z,16.00
2023-04-10T18:49:07.650Z,16.00
2023-04-10T18:54:09.320Z,16.00
2023-04-10T18:59:11.002Z,16.00
2023-04-10T19:04:13.006Z,16.00
2023-04-10T19:09:14.796Z,15.90
2023-04-10T19:14:16.474Z,15.90
2023-04-10T19:19:18.155Z,15.90
2023-04-10T19:24:19.851Z,15.80
2023-04-10T19:29:21.560Z,15.80
2023-04-10T19:34:23.252Z,15.80
2023-04-10T19:39:24.984Z,15.80
2023-04-10T19:44:26.655Z,15.70
2023-04-10T19:49:32.935Z,15.60
2023-04-10T19:54:34.886Z,15.50
2023-04-10T19:59:36.915Z,15.50
2023-04-10T20:04:38.816Z,15.50
2023-04-10T20:09:40.923Z,15.50
2023-04-10T20:14:44.739Z,15.50
2023-04-10T20:19:46.415Z,15.40
2023-04-10T20:24:51.144Z,15.40
2023-04-10T20:29:52.811Z,15.30
2023-04-10T20:34:54.468Z,15.00
2023-04-10T20:39:56.122Z,14.80
2023-04-10T20:44:57.991Z,14.50
2023-04-10T20:49:59.652Z,14.40
2023-04-10T20:55:01.417Z,14.30
2023-04-10T21:00:03.458Z,14.10
2023-04-10T21:05:05.622Z,13.90
2023-04-10T21:10:07.629Z,13.90
2023-04-10T21:15:09.735Z,13.80
2023-04-10T21:20:11.854Z,13.80
2023-04-10T21:25:13.651Z,13.70
2023-04-10T21:30:15.472Z,13.60
2023-04-10T21:35:17.286Z,13.70
2023-04-10T21:40:18.943Z,13.90
2023-04-10T21:45:20.639Z,14.00
2023-04-10T21:50:24.889Z,14.00
2023-04-10T21:55:26.676Z,14.20
2023-04-10T22:00:28.840Z,14.30
2023-04-10T22:05:31.770Z,14.80
2023-04-10T22:10:34.218Z,15.00
2023-04-10T22:15:35.877Z,15.20
2023-04-10T22:20:37.550Z,15.20
2023-04-10T22:25:39.214Z,15.30
2023-04-10T22:30:40.988Z,15.20
2023-04-10T22:35:42.787Z,15.30
2023-04-10T22:40:44.534Z,15.20
2023-04-10T22:45:46.394Z,15.10
2023-04-10T22:50:48.045Z,15.20
2023-04-10T22:55:49.803Z,15.30
2023-04-10T23:00:51.468Z,15.40
2023-04-10T23:05:53.151Z,15.40
2023-04-10T23:10:55.561Z,15.50
2023-04-10T23:15:57.322Z,15.60
2023-04-10T23:21:03.693Z,15.70
2023-04-10T23:26:05.685Z,15.80
2023-04-10T23:31:08.943Z,15.80
2023-04-10T23:36:10.898Z,15.80
2023-04-10T23:41:12.551Z,15.80
2023-04-10T23:46:14.271Z,15.80
2023-04-10T23:51:15.942Z,15.80
2023-04-10T23:56:17.692Z,15.80
